DGAA/ACC METAR and TAF weather

Enter ICAO airport designator
Station Type Date Time Source
DGAA METAR 2022/05/24 11:00 UTC NOAA

DGAA 241100Z VRB02KT 9999 SCT010 25/24 Q1015 NOSIG


Station Type Date Time Source
DGAA Decoded METAR 2022/05/24 11:00 UTC NOAA

Accra, Ghana (DGAA) 05-36N 000-10W 69M
May 24, 2022 - 07:00 AM EDT / 2022.05.24 1100 UTC
Wind: Variable at 2 MPH (2 KT):0
Visibility: greater than 7 mile(s):0
Sky conditions: partly cloudy
Temperature: 77 F (25 C)
Dew Point: 75 F (24 C)
Relative Humidity: 94%
Pressure (altimeter): 29.97 in. Hg (1015 hPa)
ob: DGAA 241100Z VRB02KT 9999 SCT010 25/24 Q1015 NOSIG
cycle: 11

Station Type Date Time Source
DGAA TAF 2022/05/23 18:22 UTC NOAA

TAF DGAA 231700Z 2318/2424 23005KT 9999 SCT012 PROB30
TEMPO 2320/2402 5000 TSARA BKN010 FEW030CB
BECMG 2403/2406 32010KT BKN010

Example: see airport list